Time;durP1;ratioP1;P1;durP2;ratioP2;P2;SDS_P1;SDS_P2;PMS_P1;PMS_P2;Temp;Humidity;BMP_temperature;BMP_pressure;BME280_temperature;BME280_humidity;BME280_pressure;Samples;Min_cycle;Max_cycle;Signal;HPM_P1;HPM_P2
2023/12/13 00:01:21;;;;;;;55.13;17.63;;;6.70;99.90;;;;;;5085306;28;20044;-65
2023/12/13 00:03:50;;;;;;;55.38;19.52;;;6.80;99.90;;;;;;5075239;28;20056;-63
2023/12/13 00:06:19;;;;;;;55.38;19.33;;;6.80;99.90;;;;;;5090436;28;20605;-69
2023/12/13 00:08:47;;;;;;;54.20;18.15;;;6.80;99.90;;;;;;5088665;28;20051;-62
2023/12/13 00:11:17;;;;;;;62.25;21.35;;;6.90;99.90;;;;;;5084374;28;20071;-64
2023/12/13 00:13:46;;;;;;;65.97;21.23;;;6.90;99.90;;;;;;5091841;28;20052;-66
2023/12/13 00:16:18;;;;;;;60.60;20.27;;;6.90;99.90;;;;;;5072462;28;20059;-63
2023/12/13 00:18:47;;;;;;;;;;;6.90;99.90;;;;;;5088213;28;20501;-65
2023/12/13 00:21:18;;;;;;;54.90;19.30;;;6.90;99.90;;;;;;5083654;28;19935;-64
2023/12/13 00:23:50;;;;;;;53.83;19.02;;;6.90;99.90;;;;;;5113252;27;20393;-62
2023/12/13 00:26:19;;;;;;;57.40;20.30;;;6.90;99.90;;;;;;5091483;28;20040;-64
2023/12/13 00:28:46;;;;;;;62.83;21.30;;;6.90;99.90;;;;;;5081383;28;20048;-65
2023/12/13 00:31:15;;;;;;;58.75;19.92;;;6.90;99.90;;;;;;5077041;28;20044;-63
2023/12/13 00:33:43;;;;;;;49.00;19.38;;;6.80;99.90;;;;;;5089088;28;20733;-63
2023/12/13 00:36:11;;;;;;;45.60;18.88;;;6.70;99.90;;;;;;5079040;28;20497;-65
2023/12/13 00:38:39;;;;;;;57.15;21.50;;;6.60;99.90;;;;;;5085838;28;20055;-64
2023/12/13 00:41:07;;;;;;;62.13;22.67;;;6.60;99.90;;;;;;5081872;28;20040;-64
2023/12/13 00:43:34;;;;;;;67.88;22.75;;;6.60;99.90;;;;;;5085792;28;20481;-64
2023/12/13 00:46:05;;;;;;;60.20;22.00;;;6.60;99.90;;;;;;5082439;28;20041;-62
2023/12/13 00:48:33;;;;;;;61.67;22.05;;;6.60;99.90;;;;;;5078721;28;20051;-66
2023/12/13 00:51:02;;;;;;;74.75;23.48;;;6.60;99.90;;;;;;5090067;28;20044;-63
2023/12/13 00:53:30;;;;;;;74.90;22.17;;;6.70;99.90;;;;;;5098457;28;20040;-64
2023/12/13 00:55:58;;;;;;;70.25;23.45;;;6.70;99.90;;;;;;5105377;28;20055;-63
2023/12/13 00:58:26;;;;;;;68.43;22.27;;;6.70;99.90;;;;;;5086970;28;20052;-64
2023/12/13 01:00:54;;;;;;;72.63;22.60;;;6.80;99.90;;;;;;5089910;28;20051;-64
2023/12/13 01:03:22;;;;;;;62.28;22.60;;;6.80;99.90;;;;;;5091225;28;20078;-67
2023/12/13 01:05:50;;;;;;;65.15;22.50;;;6.80;99.90;;;;;;5082228;28;20536;-64
2023/12/13 01:08:18;;;;;;;48.72;18.75;;;6.80;99.90;;;;;;5089048;28;20051;-64
2023/12/13 01:10:45;;;;;;;58.05;20.17;;;6.80;99.90;;;;;;5089666;28;20508;-67
2023/12/13 01:13:13;;;;;;;57.00;19.05;;;6.80;99.90;;;;;;5086793;28;20036;-62
2023/12/13 01:15:41;;;;;;;57.53;20.20;;;6.90;99.90;;;;;;5073134;28;20047;-62
2023/12/13 01:18:09;;;;;;;54.42;18.65;;;6.90;99.90;;;;;;5091160;28;20055;-62
2023/12/13 01:20:37;;;;;;;60.72;19.75;;;6.90;99.90;;;;;;5088819;28;20477;-62
2023/12/13 01:23:05;;;;;;;59.17;21.02;;;6.90;99.90;;;;;;5078743;28;20056;-62
2023/12/13 01:25:35;;;;;;;55.35;19.38;;;6.90;99.90;;;;;;5092420;28;20409;-62
2023/12/13 01:28:04;;;;;;;55.60;19.90;;;6.90;99.90;;;;;;5087912;28;20051;-63
2023/12/13 01:30:32;;;;;;;53.17;18.13;;;6.90;99.90;;;;;;5069247;28;20050;-63
2023/12/13 01:32:59;;;;;;;57.28;20.23;;;6.90;99.90;;;;;;5092271;28;20044;-62
2023/12/13 01:35:28;;;;;;;46.95;18.67;;;6.90;99.90;;;;;;5085194;28;20043;-63
2023/12/13 01:37:56;;;;;;;53.90;19.73;;;7.00;99.90;;;;;;5086162;28;20051;-61
2023/12/13 01:40:24;;;;;;;44.40;18.10;;;6.90;99.90;;;;;;5087132;28;20052;-61
2023/12/13 01:42:51;;;;;;;57.33;19.88;;;6.90;99.90;;;;;;5076700;28;20044;-64
2023/12/13 01:45:19;;;;;;;49.33;16.98;;;6.90;99.90;;;;;;5085659;28;20432;-65
2023/12/13 01:47:48;;;;;;;47.40;17.33;;;6.90;99.90;;;;;;5083976;28;20040;-65
2023/12/13 01:50:16;;;;;;;46.45;16.38;;;6.90;99.90;;;;;;5088055;28;20176;-64
2023/12/13 01:52:44;;;;;;;41.22;16.45;;;6.90;99.90;;;;;;5090874;28;20401;-63
2023/12/13 01:55:12;;;;;;;39.80;16.75;;;6.90;99.90;;;;;;5093581;28;20044;-65
2023/12/13 01:57:40;;;;;;;43.72;16.45;;;6.90;99.90;;;;;;5092573;28;20059;-64
2023/12/13 02:00:09;;;;;;;42.17;15.93;;;6.90;99.90;;;;;;5068484;28;20477;-66
2023/12/13 02:02:40;;;;;;;46.42;16.63;;;7.00;99.90;;;;;;5072399;28;20115;-62
2023/12/13 02:05:10;;;;;;;44.37;15.70;;;6.90;99.90;;;;;;5091909;28;20421;-62
2023/12/13 02:07:38;;;;;;;49.03;14.32;;;6.90;99.90;;;;;;5088619;28;20401;-62
2023/12/13 02:10:06;;;;;;;39.30;15.57;;;6.90;99.90;;;;;;5087963;28;20059;-61
2023/12/13 02:12:35;;;;;;;42.55;16.58;;;6.90;99.90;;;;;;5088473;28;20040;-62
2023/12/13 02:15:04;;;;;;;39.65;13.98;;;7.00;99.90;;;;;;5083523;28;20039;-64
2023/12/13 02:17:33;;;;;;;38.47;16.15;;;7.00;99.90;;;;;;5084863;28;20129;-62
2023/12/13 02:20:02;;;;;;;37.67;14.98;;;6.90;99.90;;;;;;5086798;28;20068;-62
2023/12/13 02:22:30;;;;;;;42.92;15.90;;;6.90;99.90;;;;;;5088415;28;20483;-63
2023/12/13 02:25:00;;;;;;;37.75;14.95;;;6.90;99.90;;;;;;5087056;28;20504;-65
2023/12/13 02:27:29;;;;;;;39.30;16.08;;;6.90;99.90;;;;;;5093135;28;20504;-66
2023/12/13 02:30:00;;;;;;;;;;;7.00;99.90;;;;;;5079059;28;20051;-64
2023/12/13 02:32:28;;;;;;;35.70;14.38;;;6.90;99.90;;;;;;5088637;28;19938;-65
2023/12/13 02:34:56;;;;;;;41.35;14.40;;;6.90;99.90;;;;;;5070992;28;20052;-65
2023/12/13 02:37:25;;;;;;;36.33;14.68;;;6.90;99.90;;;;;;5074959;28;20045;-66
2023/12/13 02:39:53;;;;;;;36.60;14.85;;;6.90;99.90;;;;;;5088557;28;20059;-67
2023/12/13 02:42:21;;;;;;;31.50;13.02;;;6.90;99.90;;;;;;5076033;28;20059;-64
2023/12/13 02:44:49;;;;;;;35.60;13.50;;;6.90;99.90;;;;;;5083973;28;20048;-62
2023/12/13 02:47:16;;;;;;;33.70;14.30;;;6.90;99.90;;;;;;5089659;28;20044;-71
2023/12/13 02:49:45;;;;;;;40.45;13.70;;;6.90;99.90;;;;;;5093589;28;20036;-70
2023/12/13 02:52:12;;;;;;;33.35;12.13;;;6.90;99.90;;;;;;5072957;28;20040;-70
2023/12/13 02:54:40;;;;;;;26.35;10.45;;;6.90;99.90;;;;;;5091171;28;20036;-72
2023/12/13 02:57:08;;;;;;;28.27;11.50;;;6.80;99.90;;;;;;5099474;28;20051;-71
2023/12/13 02:59:36;;;;;;;33.47;11.82;;;6.80;99.90;;;;;;5090280;28;20040;-71
2023/12/13 03:02:03;;;;;;;44.65;15.43;;;6.80;99.90;;;;;;5056062;28;20048;-71
2023/12/13 03:04:31;;;;;;;27.67;10.15;;;6.80;99.90;;;;;;5090997;28;20032;-70
2023/12/13 03:06:59;;;;;;;26.05;10.10;;;6.70;99.90;;;;;;5087142;28;20059;-70
2023/12/13 03:09:27;;;;;;;20.52;9.52;;;6.80;99.90;;;;;;5090767;28;20055;-70
2023/12/13 03:11:55;;;;;;;26.35;10.07;;;6.70;99.90;;;;;;5090966;28;20048;-70
2023/12/13 03:14:22;;;;;;;19.67;8.05;;;6.70;99.90;;;;;;5091396;28;20040;-68
2023/12/13 03:16:50;;;;;;;19.00;7.45;;;6.70;99.90;;;;;;5093224;28;20051;-70
2023/12/13 03:19:18;;;;;;;20.95;7.97;;;6.70;99.90;;;;;;5101644;28;20046;-70
2023/12/13 03:21:46;;;;;;;16.63;8.00;;;6.70;99.90;;;;;;5115490;28;20066;-71
2023/12/13 03:24:14;;;;;;;16.30;7.38;;;6.70;99.90;;;;;;5115302;28;20489;-71
2023/12/13 03:26:42;;;;;;;17.30;8.05;;;6.60;99.90;;;;;;5110876;28;20047;-69
2023/12/13 03:29:11;;;;;;;18.00;7.15;;;6.60;99.90;;;;;;5095027;28;20048;-71
2023/12/13 03:31:39;;;;;;;15.38;7.40;;;6.60;99.90;;;;;;5094910;28;20040;-69
2023/12/13 03:34:07;;;;;;;17.08;7.45;;;6.60;99.90;;;;;;5105343;28;20048;-70
2023/12/13 03:36:35;;;;;;;15.20;7.25;;;6.60;99.90;;;;;;5092984;28;20059;-71
2023/12/13 03:39:04;;;;;;;20.25;8.30;;;6.60;99.90;;;;;;5093077;28;20048;-64
2023/12/13 03:41:32;;;;;;;18.92;8.38;;;6.60;99.90;;;;;;5092906;28;20067;-66
2023/12/13 03:44:00;;;;;;;18.67;8.82;;;6.60;99.90;;;;;;5078452;28;20685;-71
2023/12/13 03:46:28;;;;;;;19.92;8.75;;;6.60;99.90;;;;;;5078726;28;20048;-68
2023/12/13 03:48:56;;;;;;;19.92;8.98;;;6.60;99.90;;;;;;5093174;28;20405;-71
2023/12/13 03:51:24;;;;;;;19.08;8.75;;;6.60;99.90;;;;;;5094475;28;20051;-67
2023/12/13 03:53:52;;;;;;;18.10;8.45;;;6.60;99.90;;;;;;5074000;28;20048;-68
2023/12/13 03:56:20;;;;;;;18.55;9.02;;;6.60;99.90;;;;;;5093885;28;20040;-64
2023/12/13 03:58:48;;;;;;;20.48;8.65;;;6.60;99.90;;;;;;5094482;28;20056;-62
2023/12/13 04:01:16;;;;;;;14.88;8.25;;;6.50;99.90;;;;;;5093725;28;20040;-65
2023/12/13 04:03:44;;;;;;;14.43;7.15;;;6.50;99.90;;;;;;5094114;28;20032;-63
2023/12/13 04:06:13;;;;;;;14.55;6.85;;;6.50;99.90;;;;;;5094100;28;20039;-62
2023/12/13 04:08:40;;;;;;;16.50;7.05;;;6.50;99.90;;;;;;5094128;28;20048;-65
2023/12/13 04:11:08;;;;;;;10.95;5.50;;;6.50;99.90;;;;;;5094071;28;20052;-62
2023/12/13 04:13:36;;;;;;;13.27;5.38;;;6.50;99.90;;;;;;5094285;28;20481;-63
2023/12/13 04:16:05;;;;;;;8.35;4.63;;;6.40;99.90;;;;;;5094044;28;20044;-63
2023/12/13 04:18:32;;;;;;;12.13;5.85;;;6.40;99.90;;;;;;5082341;28;20048;-62
2023/12/13 04:21:01;;;;;;;10.13;4.85;;;6.40;99.90;;;;;;5081737;28;20045;-68
2023/12/13 04:23:29;;;;;;;15.50;5.00;;;6.40;99.90;;;;;;5073695;28;20045;-64
2023/12/13 04:25:57;;;;;;;9.43;4.47;;;6.40;99.90;;;;;;5083200;28;20063;-63
2023/12/13 04:28:24;;;;;;;5.80;3.55;;;6.40;99.90;;;;;;5075710;28;20041;-67
2023/12/13 04:30:52;;;;;;;10.27;4.15;;;6.40;99.90;;;;;;5073616;28;20041;-63
2023/12/13 04:33:20;;;;;;;5.13;3.08;;;6.40;99.90;;;;;;5072285;28;20044;-63
2023/12/13 04:35:48;;;;;;;5.90;3.08;;;6.40;99.90;;;;;;5074593;28;20067;-62
2023/12/13 04:38:16;;;;;;;4.28;3.10;;;6.40;99.90;;;;;;5091891;28;20052;-67
2023/12/13 04:40:44;;;;;;;5.55;3.05;;;6.40;99.90;;;;;;5090648;28;20474;-66
2023/12/13 04:43:12;;;;;;;5.05;2.60;;;6.40;99.90;;;;;;5074701;28;20051;-61
2023/12/13 04:45:40;;;;;;;3.72;2.65;;;6.40;99.90;;;;;;5074204;28;20036;-61
2023/12/13 04:48:08;;;;;;;6.60;2.30;;;6.40;99.90;;;;;;5089545;28;20051;-62
2023/12/13 04:50:36;;;;;;;17.90;3.70;;;6.40;99.90;;;;;;5089813;28;20048;-63
2023/12/13 04:53:04;;;;;;;2.15;1.70;;;6.40;99.90;;;;;;5099458;28;20044;-62
2023/12/13 04:55:33;;;;;;;3.70;2.00;;;6.30;99.90;;;;;;5112604;28;20044;-62
2023/12/13 04:58:01;;;;;;;1.63;1.20;;;6.40;99.90;;;;;;5091408;28;20043;-65
2023/12/13 05:00:28;;;;;;;2.00;1.42;;;6.40;99.90;;;;;;5079932;28;20486;-62
2023/12/13 05:02:56;;;;;;;2.20;1.33;;;6.40;99.90;;;;;;5093093;28;20040;-62
2023/12/13 05:05:24;;;;;;;2.30;1.42;;;6.40;99.90;;;;;;5092969;28;20051;-64
2023/12/13 05:07:52;;;;;;;1.45;1.20;;;6.40;99.90;;;;;;5090265;28;20433;-66
2023/12/13 05:10:20;;;;;;;2.33;1.27;;;6.40;99.90;;;;;;5074616;28;20051;-65
2023/12/13 05:12:47;;;;;;;1.40;0.77;;;6.40;99.90;;;;;;5083103;28;20047;-62
2023/12/13 05:15:15;;;;;;;2.72;1.15;;;6.40;99.90;;;;;;5083366;28;20052;-64
2023/12/13 05:17:44;;;;;;;1.25;0.80;;;6.40;99.90;;;;;;5091103;28;20067;-62
2023/12/13 05:20:12;;;;;;;1.35;0.95;;;6.40;99.90;;;;;;5085568;28;20056;-61
2023/12/13 05:22:40;;;;;;;0.82;0.73;;;6.40;99.90;;;;;;5082555;28;20045;-63
2023/12/13 05:25:08;;;;;;;2.65;0.90;;;6.40;99.90;;;;;;5072729;28;20398;-62
2023/12/13 05:27:37;;;;;;;1.25;0.98;;;6.40;99.90;;;;;;5099595;28;20036;-62
2023/12/13 05:30:05;;;;;;;1.27;1.00;;;6.40;99.90;;;;;;5075960;28;20044;-62
2023/12/13 05:32:33;;;;;;;1.35;1.25;;;6.40;99.90;;;;;;5076745;28;20032;-63
2023/12/13 05:35:01;;;;;;;1.83;1.05;;;6.40;99.90;;;;;;5092079;28;20048;-68
2023/12/13 05:37:29;;;;;;;3.20;1.10;;;6.40;99.90;;;;;;5090053;28;20043;-61
2023/12/13 05:39:57;;;;;;;2.25;1.02;;;6.40;99.90;;;;;;5077179;28;20067;-63
2023/12/13 05:42:25;;;;;;;2.65;1.13;;;6.40;99.90;;;;;;5087896;28;20055;-62
2023/12/13 05:44:53;;;;;;;1.38;0.90;;;6.40;99.90;;;;;;5077069;28;20043;-63
2023/12/13 05:47:21;;;;;;;2.47;1.00;;;6.40;99.90;;;;;;5086158;28;20055;-62
2023/12/13 05:49:49;;;;;;;1.30;0.90;;;6.40;99.90;;;;;;5076127;28;20043;-62
2023/12/13 05:52:18;;;;;;;1.10;0.80;;;6.40;99.90;;;;;;5087469;28;20501;-62
2023/12/13 05:54:45;;;;;;;2.13;0.70;;;6.40;99.90;;;;;;5082496;28;20039;-64
2023/12/13 05:57:13;;;;;;;2.85;0.50;;;6.30;99.90;;;;;;5099168;28;20390;-63
2023/12/13 05:59:42;;;;;;;1.50;0.70;;;6.30;99.90;;;;;;5088195;28;20055;-65
2023/12/13 06:02:10;;;;;;;0.50;0.40;;;6.40;99.90;;;;;;5081820;28;20047;-62
2023/12/13 06:04:41;;;;;;;1.10;0.50;;;6.30;99.90;;;;;;5084115;28;20055;-62
2023/12/13 06:07:10;;;;;;;2.35;0.70;;;6.30;99.90;;;;;;5084134;28;20044;-62
2023/12/13 06:09:40;;;;;;;1.95;0.45;;;6.30;99.90;;;;;;5083006;28;20059;-62
2023/12/13 06:12:09;;;;;;;6.05;0.63;;;6.30;99.90;;;;;;5084394;28;20044;-62
2023/12/13 06:14:37;;;;;;;2.58;0.52;;;6.30;99.90;;;;;;5095967;28;20048;-63
2023/12/13 06:17:05;;;;;;;1.27;0.60;;;6.30;99.90;;;;;;5091865;28;20040;-62
2023/12/13 06:19:32;;;;;;;1.33;0.50;;;6.40;99.90;;;;;;5088554;28;20047;-61
2023/12/13 06:22:04;;;;;;;0.60;0.40;;;6.30;99.90;;;;;;5089591;28;20051;-62
2023/12/13 06:24:33;;;;;;;3.80;0.70;;;6.30;99.90;;;;;;5076943;28;20623;-61
2023/12/13 06:27:01;;;;;;;2.72;0.40;;;6.30;99.90;;;;;;5076431;28;20048;-61
2023/12/13 06:29:29;;;;;;;1.27;0.38;;;6.30;99.90;;;;;;5082627;28;20127;-62
2023/12/13 06:31:57;;;;;;;3.22;0.47;;;6.30;99.90;;;;;;5074686;28;20055;-62
2023/12/13 06:34:25;;;;;;;0.60;0.30;;;6.30;99.90;;;;;;5086515;28;20047;-62
2023/12/13 06:36:53;;;;;;;3.53;0.52;;;6.40;99.90;;;;;;5087957;28;20056;-62
2023/12/13 06:39:20;;;;;;;6.03;0.60;;;6.40;99.90;;;;;;5085178;28;20044;-62
2023/12/13 06:41:51;;;;;;;0.20;0.20;;;6.40;99.90;;;;;;5091931;28;20051;-63
2023/12/13 06:44:21;;;;;;;0.80;0.35;;;6.40;99.90;;;;;;5086302;28;20512;-64
2023/12/13 06:46:50;;;;;;;3.53;0.50;;;6.40;99.90;;;;;;5085935;28;20051;-63
2023/12/13 06:49:18;;;;;;;0.37;0.30;;;6.40;99.90;;;;;;5069808;28;20048;-62
2023/12/13 06:51:46;;;;;;;0.50;0.20;;;6.40;99.90;;;;;;5082099;28;20178;-62
2023/12/13 06:54:14;;;;;;;2.38;0.30;;;6.40;99.90;;;;;;5097365;28;20047;-65
2023/12/13 06:56:42;;;;;;;0.70;0.32;;;6.40;99.90;;;;;;5088134;28;20064;-62
2023/12/13 06:59:10;;;;;;;2.08;0.25;;;6.40;99.90;;;;;;5082249;28;20055;-62
2023/12/13 07:01:38;;;;;;;2.70;0.60;;;6.40;99.90;;;;;;5081275;28;20048;-65
2023/12/13 07:04:06;;;;;;;3.03;0.45;;;6.30;99.90;;;;;;5082597;28;20051;-67
2023/12/13 07:06:34;;;;;;;0.40;0.32;;;6.40;99.90;;;;;;5082235;28;20044;-64
2023/12/13 07:09:02;;;;;;;2.70;0.30;;;6.40;99.90;;;;;;5082337;28;20056;-65
2023/12/13 07:11:30;;;;;;;0.25;0.25;;;6.40;99.90;;;;;;5085676;28;20627;-68
2023/12/13 07:13:59;;;;;;;1.27;0.50;;;6.40;99.90;;;;;;5085451;28;20059;-63
2023/12/13 07:16:28;;;;;;;3.20;0.40;;;6.40;99.90;;;;;;5068901;28;20037;-63
2023/12/13 07:18:56;;;;;;;6.43;1.15;;;6.40;99.90;;;;;;5083134;28;20051;-62
2023/12/13 07:21:24;;;;;;;1.98;0.30;;;6.40;99.90;;;;;;5077420;28;20055;-65
2023/12/13 07:23:52;;;;;;;2.72;0.65;;;6.40;99.90;;;;;;5080510;28;20059;-62
2023/12/13 07:26:20;;;;;;;2.67;0.57;;;6.40;99.90;;;;;;5082988;28;20044;-61
2023/12/13 07:28:49;;;;;;;0.50;0.50;;;6.40;99.90;;;;;;5076405;28;20394;-63
2023/12/13 07:31:16;;;;;;;2.25;0.50;;;6.40;99.90;;;;;;5080869;28;20401;-64
2023/12/13 07:33:45;;;;;;;2.58;0.60;;;6.40;99.90;;;;;;5079516;28;20500;-62
2023/12/13 07:36:14;;;;;;;0.45;0.40;;;6.40;99.90;;;;;;5082782;28;20047;-62
2023/12/13 07:38:42;;;;;;;7.07;1.23;;;6.40;99.90;;;;;;5089379;28;20055;-63
2023/12/13 07:41:13;;;;;;;;;;;6.40;99.90;;;;;;5098161;28;20405;-62
2023/12/13 07:43:41;;;;;;;1.17;0.35;;;6.40;99.90;;;;;;5080131;28;20377;-63
2023/12/13 07:46:10;;;;;;;6.30;0.90;;;6.40;99.90;;;;;;5068263;28;20051;-67
2023/12/13 07:48:41;;;;;;;2.30;1.17;;;6.40;99.90;;;;;;5078318;28;20047;-62
2023/12/13 07:51:10;;;;;;;2.25;0.40;;;6.30;99.90;;;;;;5069456;28;20052;-63
2023/12/13 07:53:38;;;;;;;2.53;0.50;;;6.30;99.90;;;;;;5076040;28;20047;-62
2023/12/13 07:56:07;;;;;;;3.97;0.70;;;6.30;99.90;;;;;;5083030;28;20525;-64
2023/12/13 07:58:38;;;;;;;2.33;0.85;;;6.30;99.90;;;;;;5089686;28;20052;-62
2023/12/13 08:01:06;;;;;;;3.83;0.70;;;6.30;99.90;;;;;;5066701;28;20049;-62
2023/12/13 08:03:34;;;;;;;0.80;0.50;;;6.30;99.90;;;;;;5073181;28;20405;-62
2023/12/13 08:06:12;;;;;;;3.80;0.43;;;6.30;99.90;;;;;;5072515;28;20052;-64
2023/12/13 08:08:41;;;;;;;5.45;0.60;;;6.20;99.90;;;;;;5083214;28;20044;-62
2023/12/13 08:11:09;;;;;;;5.20;0.93;;;6.20;99.90;;;;;;5071191;28;20037;-62
2023/12/13 08:13:37;;;;;;;2.15;0.40;;;6.20;99.90;;;;;;5089810;28;20603;-61
2023/12/13 08:16:05;;;;;;;2.05;0.38;;;6.20;99.90;;;;;;5090076;28;20398;-61
2023/12/13 08:18:33;;;;;;;1.35;0.32;;;6.10;99.90;;;;;;5094268;28;20052;-61
2023/12/13 08:21:01;;;;;;;3.10;0.55;;;6.10;99.90;;;;;;5089417;28;20083;-63
2023/12/13 08:23:29;;;;;;;5.45;0.70;;;6.10;99.90;;;;;;5114136;27;20054;-63
2023/12/13 08:25:58;;;;;;;0.98;0.30;;;6.00;99.90;;;;;;5110781;28;20048;-62
2023/12/13 08:28:26;;;;;;;0.93;0.45;;;6.00;99.90;;;;;;5073658;28;20033;-62
2023/12/13 08:30:53;;;;;;;3.83;0.93;;;6.00;99.90;;;;;;5087460;28;20048;-64
2023/12/13 08:33:35;;;;;;;5.75;0.90;;;6.00;99.90;;;;;;5084680;28;20052;-63
2023/12/13 08:36:09;;;;;;;2.40;0.65;;;6.00;99.90;;;;;;5075322;28;20416;-66
2023/12/13 08:38:38;;;;;;;2.45;0.50;;;5.90;99.90;;;;;;5082376;28;20822;-64
2023/12/13 08:41:07;;;;;;;2.47;0.60;;;5.90;99.90;;;;;;5080696;28;20528;-63
2023/12/13 08:43:35;;;;;;;3.87;0.67;;;5.90;99.90;;;;;;5089045;28;20055;-63
2023/12/13 08:46:03;;;;;;;7.13;0.73;;;5.90;99.90;;;;;;5110743;28;20296;-63
2023/12/13 08:48:31;;;;;;;7.60;0.98;;;5.90;99.90;;;;;;5109014;28;20051;-70
2023/12/13 08:50:59;;;;;;;5.75;0.80;;;5.90;99.90;;;;;;5086903;28;20048;-64
2023/12/13 08:53:27;;;;;;;2.75;0.68;;;5.90;99.90;;;;;;5081673;28;20044;-70
2023/12/13 08:55:56;;;;;;;5.03;0.60;;;5.90;99.90;;;;;;5096384;28;20055;-64
2023/12/13 08:58:24;;;;;;;6.88;0.93;;;5.90;99.90;;;;;;5098245;28;20063;-63
2023/12/13 09:00:52;;;;;;;4.65;0.68;;;5.90;99.90;;;;;;5087030;28;20051;-66
2023/12/13 09:03:20;;;;;;;4.25;0.73;;;5.90;99.90;;;;;;5096214;28;20535;-65
2023/12/13 09:05:48;;;;;;;1.35;0.68;;;5.90;99.90;;;;;;5086423;28;20064;-63
2023/12/13 09:08:16;;;;;;;5.53;1.52;;;5.90;99.90;;;;;;5078738;28;20477;-69
2023/12/13 09:10:44;;;;;;;2.83;0.65;;;5.90;99.90;;;;;;5083830;28;20048;-71
2023/12/13 09:13:13;;;;;;;3.58;0.60;;;5.90;99.90;;;;;;5090681;28;20059;-69
2023/12/13 09:15:42;;;;;;;;;;;5.80;99.90;;;;;;5086366;28;20471;-64
2023/12/13 09:18:10;;;;;;;1.92;0.40;;;5.80;99.90;;;;;;5095022;28;20293;-62
2023/12/13 09:20:40;;;;;;;2.47;0.40;;;5.80;99.90;;;;;;5086593;28;20044;-62
2023/12/13 09:23:10;;;;;;;3.50;0.80;;;5.90;99.90;;;;;;5096014;28;20047;-62
2023/12/13 09:25:38;;;;;;;2.42;0.55;;;5.90;99.90;;;;;;5093957;28;20048;-62
2023/12/13 09:28:06;;;;;;;4.93;1.67;;;5.90;99.90;;;;;;5094754;28;20044;-62
2023/12/13 09:30:34;;;;;;;1.92;0.52;;;5.90;99.90;;;;;;5088815;28;20055;-62
2023/12/13 09:33:02;;;;;;;2.45;0.52;;;6.00;99.90;;;;;;5088342;28;20052;-62
2023/12/13 09:35:29;;;;;;;3.83;0.70;;;5.90;99.90;;;;;;5068595;28;20075;-62
2023/12/13 09:37:57;;;;;;;1.85;0.60;;;6.00;99.90;;;;;;5074569;28;20063;-62
2023/12/13 09:40:25;;;;;;;2.92;0.70;;;6.10;99.90;;;;;;5073496;28;20405;-61
2023/12/13 09:42:53;;;;;;;4.70;0.63;;;6.00;99.90;;;;;;5059449;28;20061;-62
2023/12/13 09:45:22;;;;;;;4.82;0.68;;;6.10;99.90;;;;;;5088172;28;20501;-62
2023/12/13 09:47:52;;;;;;;3.50;0.68;;;6.10;99.90;;;;;;5095458;28;20048;-62
2023/12/13 09:50:26;;;;;;;3.13;0.73;;;6.20;99.90;;;;;;5069905;28;20053;-63
2023/12/13 09:52:55;;;;;;;4.80;0.50;;;6.10;99.90;;;;;;5083911;28;21020;-65
2023/12/13 09:55:23;;;;;;;4.10;0.98;;;6.20;99.90;;;;;;5072671;28;20041;-62
2023/12/13 09:57:53;;;;;;;3.15;0.70;;;6.20;99.90;;;;;;5102579;28;20051;-61
2023/12/13 10:00:21;;;;;;;3.17;0.70;;;6.20;99.90;;;;;;5079567;28;20070;-62
2023/12/13 10:02:50;;;;;;;2.15;0.75;;;6.20;99.90;;;;;;5085608;28;20051;-63
2023/12/13 10:05:18;;;;;;;3.22;0.63;;;6.30;99.90;;;;;;5068508;28;20055;-62
2023/12/13 10:07:46;;;;;;;4.50;1.38;;;6.20;99.90;;;;;;5073431;28;20044;-66
2023/12/13 10:10:14;;;;;;;2.20;0.40;;;6.30;99.90;;;;;;5086911;28;20056;-67
2023/12/13 10:12:43;;;;;;;;;;;6.30;99.90;;;;;;5085969;28;20048;-65
2023/12/13 10:15:12;;;;;;;3.78;0.60;;;6.30;99.90;;;;;;5068237;28;19921;-66
2023/12/13 10:17:40;;;;;;;6.53;0.70;;;6.30;99.90;;;;;;5068758;28;20070;-62
2023/12/13 10:20:10;;;;;;;6.00;1.02;;;6.30;99.90;;;;;;5074061;28;20040;-64
2023/12/13 10:22:39;;;;;;;4.25;0.70;;;6.30;99.90;;;;;;5095325;28;20043;-62
2023/12/13 10:25:08;;;;;;;4.53;0.70;;;6.30;99.90;;;;;;5080181;28;20049;-63
2023/12/13 10:27:36;;;;;;;4.50;0.75;;;6.30;99.90;;;;;;5073382;28;20048;-62
2023/12/13 10:30:05;;;;;;;3.60;0.50;;;6.40;99.90;;;;;;5084986;28;20795;-61
2023/12/13 10:32:33;;;;;;;1.85;0.45;;;6.40;99.90;;;;;;5085874;28;20055;-62
2023/12/13 10:35:04;;;;;;;2.38;0.60;;;6.40;99.90;;;;;;5078437;28;20036;-65
2023/12/13 10:37:34;;;;;;;2.67;0.73;;;6.40;99.90;;;;;;5080231;28;20052;-63
2023/12/13 10:40:04;;;;;;;3.85;0.68;;;6.50;99.90;;;;;;5077251;28;20709;-62
2023/12/13 10:42:38;;;;;;;4.73;0.80;;;6.50;99.90;;;;;;5086725;28;20048;-65
2023/12/13 10:45:10;;;;;;;5.53;0.88;;;6.50;99.90;;;;;;5078880;28;20041;-67
2023/12/13 10:47:44;;;;;;;2.85;0.60;;;6.50;99.90;;;;;;5079513;28;20048;-65
2023/12/13 10:50:14;;;;;;;1.55;0.68;;;6.50;99.90;;;;;;5072598;28;20053;-61
2023/12/13 10:52:43;;;;;;;3.70;0.52;;;6.50;99.90;;;;;;5057234;28;20493;-61
2023/12/13 10:55:14;;;;;;;1.85;0.70;;;6.50;99.90;;;;;;5096021;28;20036;-63
2023/12/13 10:57:45;;;;;;;2.67;0.75;;;6.60;99.90;;;;;;5080610;28;20662;-63
2023/12/13 11:00:14;;;;;;;1.20;0.43;;;6.60;99.90;;;;;;5087091;28;20055;-63
2023/12/13 11:02:49;;;;;;;2.00;0.50;;;6.70;99.90;;;;;;5087471;28;20413;-62
2023/12/13 11:05:18;;;;;;;3.65;0.50;;;6.70;99.90;;;;;;5077927;28;20052;-62
2023/12/13 11:07:46;;;;;;;2.35;0.40;;;6.70;99.90;;;;;;5069035;28;20044;-64
2023/12/13 11:10:15;;;;;;;2.13;0.60;;;6.80;99.90;;;;;;5080211;28;20047;-62
2023/12/13 11:12:50;;;;;;;4.13;1.10;;;6.70;99.90;;;;;;5088538;28;20063;-62
2023/12/13 11:15:19;;;;;;;1.00;0.50;;;6.70;99.90;;;;;;5098205;28;20051;-62
2023/12/13 11:17:54;;;;;;;1.77;0.50;;;6.70;99.90;;;;;;5082758;28;20052;-62
2023/12/13 11:20:22;;;;;;;6.10;0.70;;;6.70;99.90;;;;;;5073423;28;20060;-64
2023/12/13 11:22:54;;;;;;;0.57;0.40;;;6.70;99.90;;;;;;5076592;28;20044;-61
2023/12/13 11:25:34;;;;;;;6.43;2.78;;;6.80;99.90;;;;;;5084903;28;20087;-62
2023/12/13 11:28:02;;;;;;;4.88;0.68;;;6.80;99.90;;;;;;5098173;28;20107;-62
2023/12/13 11:30:32;;;;;;;2.58;0.60;;;6.80;99.90;;;;;;5071919;28;20493;-62
2023/12/13 11:33:11;;;;;;;2.65;0.85;;;6.80;99.90;;;;;;5078038;28;20067;-62
2023/12/13 11:35:40;;;;;;;6.18;0.93;;;6.80;99.90;;;;;;5094650;28;20398;-63
2023/12/13 11:38:08;;;;;;;3.15;0.80;;;6.80;99.90;;;;;;5078924;28;20055;-62
2023/12/13 11:40:39;;;;;;;;;;;6.80;99.90;;;;;;5083788;28;20041;-62
2023/12/13 11:43:07;;;;;;;2.03;0.60;;;6.80;99.90;;;;;;5086337;28;19920;-64
2023/12/13 11:45:35;;;;;;;1.63;0.45;;;6.80;99.90;;;;;;5083526;28;20052;-63
2023/12/13 11:48:04;;;;;;;5.15;0.70;;;6.80;99.90;;;;;;5088586;28;20055;-63
2023/12/13 11:50:32;;;;;;;8.27;6.35;;;6.80;99.90;;;;;;5081171;28;20385;-62
2023/12/13 11:52:59;;;;;;;17.60;8.95;;;6.80;99.90;;;;;;5089081;28;20041;-63
2023/12/13 11:55:28;;;;;;;101.38;57.28;;;6.80;99.90;;;;;;5091922;28;20043;-63
2023/12/13 11:57:58;;;;;;;56.25;30.15;;;6.90;99.90;;;;;;5110151;28;20051;-68
2023/12/13 12:00:26;;;;;;;;;;;6.80;99.90;;;;;;5106493;28;20043;-63
2023/12/13 12:02:54;;;;;;;7.22;2.90;;;6.80;99.90;;;;;;5098909;28;19943;-68
2023/12/13 12:05:25;;;;;;;121.05;45.33;;;6.90;99.90;;;;;;5085016;28;20494;-63
2023/12/13 12:08:03;;;;;;;31.30;19.10;;;6.80;99.90;;;;;;5087259;28;20062;-66
2023/12/13 12:10:31;;;;;;;21.10;13.10;;;6.80;99.90;;;;;;5078586;28;20603;-67
2023/12/13 12:13:01;;;;;;;39.90;26.30;;;6.80;99.90;;;;;;5081443;28;20055;-62
2023/12/13 12:15:31;;;;;;;14.75;8.55;;;6.80;99.90;;;;;;5079711;28;20032;-62
2023/12/13 12:18:01;;;;;;;7.47;3.40;;;6.80;99.90;;;;;;5089537;28;20047;-64
2023/12/13 12:20:31;;;;;;;12.85;4.43;;;6.80;99.90;;;;;;5095993;28;20040;-62
2023/12/13 12:23:01;;;;;;;8.70;2.30;;;6.80;99.90;;;;;;5085366;28;20048;-62
2023/12/13 12:25:29;;;;;;;14.02;5.65;;;6.80;99.90;;;;;;5088007;28;20051;-65
2023/12/13 12:27:58;;;;;;;9.15;2.50;;;6.90;99.90;;;;;;5082859;28;20492;-64
2023/12/13 12:30:25;;;;;;;22.90;7.25;;;6.90;99.90;;;;;;5078154;28;20033;-64
2023/12/13 12:32:53;;;;;;;7.30;2.15;;;6.90;99.90;;;;;;5083822;28;20044;-64
2023/12/13 12:35:21;;;;;;;12.32;3.08;;;6.90;99.90;;;;;;5078033;28;20051;-65
2023/12/13 12:37:50;;;;;;;11.20;3.40;;;7.00;99.90;;;;;;5076073;28;20055;-69
2023/12/13 12:40:18;;;;;;;14.13;2.47;;;7.00;99.90;;;;;;5077333;28;20052;-66
2023/12/13 12:42:46;;;;;;;5.05;1.48;;;7.00;99.90;;;;;;5075900;28;20122;-67
2023/12/13 12:45:14;;;;;;;11.45;2.65;;;7.00;99.90;;;;;;5090173;28;20543;-62
2023/12/13 12:47:42;;;;;;;13.13;2.17;;;7.00;99.90;;;;;;5087496;28;20051;-63
2023/12/13 12:50:10;;;;;;;3.13;1.23;;;7.00;99.90;;;;;;5086861;28;20487;-63
2023/12/13 12:52:38;;;;;;;6.68;1.50;;;7.00;99.90;;;;;;5091801;28;20393;-63
2023/12/13 12:55:06;;;;;;;7.00;1.50;;;7.00;99.90;;;;;;5105641;28;20052;-62
2023/12/13 12:57:34;;;;;;;10.30;2.50;;;6.90;99.90;;;;;;5070791;28;20048;-63
2023/12/13 13:00:06;;;;;;;7.05;1.50;;;6.90;99.90;;;;;;5073240;28;20055;-62